sensor_id;sensor_type;location;lat;lon;timestamp;P1;durP1;ratioP1;P2;durP2;ratioP2
6394;SDS011;3230;42.588;23.358;2023-11-18T00:02:17;0.70;;;0.60;;
6394;SDS011;3230;42.588;23.358;2023-11-18T00:04:42;0.60;;;0.60;;
6394;SDS011;3230;42.588;23.358;2023-11-18T00:07:08;0.70;;;0.70;;
6394;SDS011;3230;42.588;23.358;2023-11-18T00:09:34;0.60;;;0.60;;
6394;SDS011;3230;42.588;23.358;2023-11-18T00:12:00;0.70;;;0.70;;
6394;SDS011;3230;42.588;23.358;2023-11-18T00:14:26;0.65;;;0.50;;
6394;SDS011;3230;42.588;23.358;2023-11-18T00:16:51;0.50;;;0.50;;
6394;SDS011;3230;42.588;23.358;2023-11-18T00:19:17;0.70;;;0.60;;
6394;SDS011;3230;42.588;23.358;2023-11-18T00:21:42;0.50;;;0.50;;
6394;SDS011;3230;42.588;23.358;2023-11-18T00:24:09;0.60;;;0.50;;
6394;SDS011;3230;42.588;23.358;2023-11-18T00:26:34;0.60;;;0.60;;
6394;SDS011;3230;42.588;23.358;2023-11-18T00:29:00;0.80;;;0.70;;
6394;SDS011;3230;42.588;23.358;2023-11-18T00:31:28;0.70;;;0.60;;
6394;SDS011;3230;42.588;23.358;2023-11-18T00:33:54;0.70;;;0.60;;
6394;SDS011;3230;42.588;23.358;2023-11-18T00:36:20;0.60;;;0.60;;
6394;SDS011;3230;42.588;23.358;2023-11-18T00:38:45;0.63;;;0.63;;
6394;SDS011;3230;42.588;23.358;2023-11-18T00:41:11;0.80;;;0.60;;
6394;SDS011;3230;42.588;23.358;2023-11-18T00:43:37;0.77;;;0.70;;
6394;SDS011;3230;42.588;23.358;2023-11-18T00:46:03;0.70;;;0.70;;
6394;SDS011;3230;42.588;23.358;2023-11-18T00:48:30;0.60;;;0.60;;
6394;SDS011;3230;42.588;23.358;2023-11-18T00:50:55;0.70;;;0.70;;
6394;SDS011;3230;42.588;23.358;2023-11-18T00:53:21;0.53;;;0.53;;
6394;SDS011;3230;42.588;23.358;2023-11-18T00:55:47;0.70;;;0.70;;
6394;SDS011;3230;42.588;23.358;2023-11-18T00:58:13;0.50;;;0.50;;
6394;SDS011;3230;42.588;23.358;2023-11-18T01:00:38;0.70;;;0.70;;
6394;SDS011;3230;42.588;23.358;2023-11-18T01:03:04;0.50;;;0.50;;
6394;SDS011;3230;42.588;23.358;2023-11-18T01:05:29;0.70;;;0.70;;
6394;SDS011;3230;42.588;23.358;2023-11-18T01:07:56;0.80;;;0.80;;
6394;SDS011;3230;42.588;23.358;2023-11-18T01:10:21;0.80;;;0.70;;
6394;SDS011;3230;42.588;23.358;2023-11-18T01:12:47;0.60;;;0.60;;
6394;SDS011;3230;42.588;23.358;2023-11-18T01:15:12;0.60;;;0.60;;
6394;SDS011;3230;42.588;23.358;2023-11-18T01:17:39;0.60;;;0.60;;
6394;SDS011;3230;42.588;23.358;2023-11-18T01:20:05;0.50;;;0.40;;
6394;SDS011;3230;42.588;23.358;2023-11-18T01:22:35;0.60;;;0.60;;
6394;SDS011;3230;42.588;23.358;2023-11-18T01:25:02;0.50;;;0.50;;
6394;SDS011;3230;42.588;23.358;2023-11-18T01:27:28;0.55;;;0.55;;
6394;SDS011;3230;42.588;23.358;2023-11-18T01:29:54;0.60;;;0.57;;
6394;SDS011;3230;42.588;23.358;2023-11-18T01:32:19;0.50;;;0.50;;
6394;SDS011;3230;42.588;23.358;2023-11-18T01:34:45;0.60;;;0.60;;
6394;SDS011;3230;42.588;23.358;2023-11-18T01:37:15;0.68;;;0.60;;
6394;SDS011;3230;42.588;23.358;2023-11-18T01:39:43;0.60;;;0.55;;
6394;SDS011;3230;42.588;23.358;2023-11-18T01:42:08;0.60;;;0.53;;
6394;SDS011;3230;42.588;23.358;2023-11-18T01:44:34;0.60;;;0.60;;
6394;SDS011;3230;42.588;23.358;2023-11-18T01:47:03;0.60;;;0.60;;
6394;SDS011;3230;42.588;23.358;2023-11-18T01:49:35;0.80;;;0.80;;
6394;SDS011;3230;42.588;23.358;2023-11-18T01:52:05;1.45;;;1.35;;
6394;SDS011;3230;42.588;23.358;2023-11-18T01:54:32;0.68;;;0.68;;
6394;SDS011;3230;42.588;23.358;2023-11-18T01:56:59;0.88;;;0.88;;
6394;SDS011;3230;42.588;23.358;2023-11-18T01:59:27;0.65;;;0.65;;
6394;SDS011;3230;42.588;23.358;2023-11-18T02:01:55;1.00;;;0.80;;
6394;SDS011;3230;42.588;23.358;2023-11-18T02:04:24;0.77;;;0.77;;
6394;SDS011;3230;42.588;23.358;2023-11-18T02:06:50;1.13;;;0.80;;
6394;SDS011;3230;42.588;23.358;2023-11-18T02:09:17;0.90;;;0.90;;
6394;SDS011;3230;42.588;23.358;2023-11-18T02:11:52;1.13;;;1.08;;
6394;SDS011;3230;42.588;23.358;2023-11-18T02:14:21;1.00;;;1.00;;
6394;SDS011;3230;42.588;23.358;2023-11-18T02:16:51;0.90;;;0.90;;
6394;SDS011;3230;42.588;23.358;2023-11-18T02:19:21;0.90;;;0.90;;
6394;SDS011;3230;42.588;23.358;2023-11-18T02:21:49;1.05;;;1.05;;
6394;SDS011;3230;42.588;23.358;2023-11-18T02:24:33;3.72;;;1.00;;
6394;SDS011;3230;42.588;23.358;2023-11-18T02:27:02;1.08;;;1.00;;
6394;SDS011;3230;42.588;23.358;2023-11-18T02:29:38;0.73;;;0.73;;
6394;SDS011;3230;42.588;23.358;2023-11-18T02:35:10;1.08;;;0.98;;
6394;SDS011;3230;42.588;23.358;2023-11-18T02:37:42;0.70;;;0.70;;
6394;SDS011;3230;42.588;23.358;2023-11-18T02:40:11;1.20;;;1.10;;
6394;SDS011;3230;42.588;23.358;2023-11-18T02:42:43;1.10;;;1.00;;
6394;SDS011;3230;42.588;23.358;2023-11-18T02:45:10;1.10;;;1.00;;
6394;SDS011;3230;42.588;23.358;2023-11-18T02:47:41;1.08;;;0.98;;
6394;SDS011;3230;42.588;23.358;2023-11-18T02:50:09;1.70;;;0.82;;
6394;SDS011;3230;42.588;23.358;2023-11-18T02:52:38;1.50;;;1.17;;
6394;SDS011;3230;42.588;23.358;2023-11-18T02:55:05;0.93;;;0.75;;
6394;SDS011;3230;42.588;23.358;2023-11-18T02:57:34;0.80;;;0.80;;
6394;SDS011;3230;42.588;23.358;2023-11-18T03:00:00;0.95;;;0.82;;
6394;SDS011;3230;42.588;23.358;2023-11-18T03:02:26;1.30;;;1.20;;
6394;SDS011;3230;42.588;23.358;2023-11-18T03:04:55;1.10;;;1.00;;
6394;SDS011;3230;42.588;23.358;2023-11-18T03:07:20;1.30;;;1.20;;
6394;SDS011;3230;42.588;23.358;2023-11-18T03:09:45;0.97;;;0.93;;
6394;SDS011;3230;42.588;23.358;2023-11-18T03:12:12;1.17;;;1.08;;
6394;SDS011;3230;42.588;23.358;2023-11-18T03:14:38;1.55;;;1.10;;
6394;SDS011;3230;42.588;23.358;2023-11-18T03:17:03;1.07;;;0.97;;
6394;SDS011;3230;42.588;23.358;2023-11-18T03:19:31;1.30;;;1.20;;
6394;SDS011;3230;42.588;23.358;2023-11-18T03:22:00;1.33;;;1.23;;
6394;SDS011;3230;42.588;23.358;2023-11-18T03:24:26;5.88;;;1.50;;
6394;SDS011;3230;42.588;23.358;2023-11-18T03:26:54;1.55;;;1.40;;
6394;SDS011;3230;42.588;23.358;2023-11-18T03:29:20;1.17;;;1.08;;
6394;SDS011;3230;42.588;23.358;2023-11-18T03:31:45;1.90;;;1.30;;
6394;SDS011;3230;42.588;23.358;2023-11-18T03:34:13;1.50;;;1.40;;
6394;SDS011;3230;42.588;23.358;2023-11-18T03:36:39;1.95;;;1.20;;
6394;SDS011;3230;42.588;23.358;2023-11-18T03:39:04;2.10;;;1.50;;
6394;SDS011;3230;42.588;23.358;2023-11-18T03:41:31;1.30;;;1.20;;
6394;SDS011;3230;42.588;23.358;2023-11-18T03:43:56;1.70;;;1.43;;
6394;SDS011;3230;42.588;23.358;2023-11-18T03:46:22;1.47;;;1.33;;
6394;SDS011;3230;42.588;23.358;2023-11-18T03:48:56;1.50;;;1.40;;
6394;SDS011;3230;42.588;23.358;2023-11-18T03:51:21;1.73;;;1.43;;
6394;SDS011;3230;42.588;23.358;2023-11-18T03:53:46;1.90;;;1.20;;
6394;SDS011;3230;42.588;23.358;2023-11-18T03:56:16;1.40;;;1.30;;
6394;SDS011;3230;42.588;23.358;2023-11-18T03:58:43;1.30;;;1.20;;
6394;SDS011;3230;42.588;23.358;2023-11-18T04:01:08;1.30;;;1.20;;
6394;SDS011;3230;42.588;23.358;2023-11-18T04:03:36;1.80;;;1.42;;
6394;SDS011;3230;42.588;23.358;2023-11-18T04:06:01;1.80;;;1.60;;
6394;SDS011;3230;42.588;23.358;2023-11-18T04:08:28;1.65;;;1.45;;
6394;SDS011;3230;42.588;23.358;2023-11-18T04:10:54;1.50;;;1.40;;
6394;SDS011;3230;42.588;23.358;2023-11-18T04:13:19;1.93;;;1.40;;
6394;SDS011;3230;42.588;23.358;2023-11-18T04:15:44;1.73;;;1.33;;
6394;SDS011;3230;42.588;23.358;2023-11-18T04:18:10;1.30;;;1.20;;
6394;SDS011;3230;42.588;23.358;2023-11-18T04:20:36;2.07;;;1.63;;
6394;SDS011;3230;42.588;23.358;2023-11-18T04:23:02;4.27;;;1.60;;
6394;SDS011;3230;42.588;23.358;2023-11-18T04:25:27;1.80;;;1.70;;
6394;SDS011;3230;42.588;23.358;2023-11-18T04:27:53;1.47;;;1.37;;
6394;SDS011;3230;42.588;23.358;2023-11-18T04:30:18;2.07;;;1.87;;
6394;SDS011;3230;42.588;23.358;2023-11-18T04:32:43;2.20;;;1.90;;
6394;SDS011;3230;42.588;23.358;2023-11-18T04:35:09;1.87;;;1.60;;
6394;SDS011;3230;42.588;23.358;2023-11-18T04:37:36;1.95;;;1.75;;
6394;SDS011;3230;42.588;23.358;2023-11-18T04:40:03;2.58;;;1.80;;
6394;SDS011;3230;42.588;23.358;2023-11-18T04:42:29;4.35;;;2.00;;
6394;SDS011;3230;42.588;23.358;2023-11-18T04:44:55;1.80;;;1.70;;
6394;SDS011;3230;42.588;23.358;2023-11-18T04:47:21;2.42;;;2.05;;
6394;SDS011;3230;42.588;23.358;2023-11-18T04:49:46;1.87;;;1.40;;
6394;SDS011;3230;42.588;23.358;2023-11-18T04:52:12;2.27;;;2.07;;
6394;SDS011;3230;42.588;23.358;2023-11-18T04:54:37;2.00;;;1.67;;
6394;SDS011;3230;42.588;23.358;2023-11-18T04:57:02;1.90;;;1.40;;
6394;SDS011;3230;42.588;23.358;2023-11-18T04:59:28;2.13;;;1.67;;
6394;SDS011;3230;42.588;23.358;2023-11-18T05:01:55;2.20;;;1.70;;
6394;SDS011;3230;42.588;23.358;2023-11-18T05:04:21;1.27;;;1.17;;
6394;SDS011;3230;42.588;23.358;2023-11-18T05:06:46;1.30;;;1.20;;
6394;SDS011;3230;42.588;23.358;2023-11-18T05:09:12;2.50;;;1.60;;
6394;SDS011;3230;42.588;23.358;2023-11-18T05:11:37;1.97;;;1.67;;
6394;SDS011;3230;42.588;23.358;2023-11-18T05:14:03;1.60;;;1.50;;
6394;SDS011;3230;42.588;23.358;2023-11-18T05:16:29;1.70;;;1.60;;
6394;SDS011;3230;42.588;23.358;2023-11-18T05:18:55;1.77;;;1.67;;
6394;SDS011;3230;42.588;23.358;2023-11-18T05:21:20;2.60;;;2.40;;
6394;SDS011;3230;42.588;23.358;2023-11-18T05:23:46;0.90;;;0.90;;
6394;SDS011;3230;42.588;23.358;2023-11-18T05:26:12;2.10;;;1.40;;
6394;SDS011;3230;42.588;23.358;2023-11-18T05:28:37;1.00;;;1.00;;
6394;SDS011;3230;42.588;23.358;2023-11-18T05:31:03;1.50;;;1.40;;
6394;SDS011;3230;42.588;23.358;2023-11-18T05:33:30;1.00;;;0.90;;
6394;SDS011;3230;42.588;23.358;2023-11-18T05:35:56;0.95;;;0.95;;
6394;SDS011;3230;42.588;23.358;2023-11-18T05:38:22;1.07;;;0.97;;
6394;SDS011;3230;42.588;23.358;2023-11-18T05:40:49;1.17;;;1.08;;
6394;SDS011;3230;42.588;23.358;2023-11-18T05:43:26;1.17;;;1.08;;
6394;SDS011;3230;42.588;23.358;2023-11-18T05:46:04;1.20;;;1.10;;
6394;SDS011;3230;42.588;23.358;2023-11-18T05:48:43;0.90;;;0.90;;
6394;SDS011;3230;42.588;23.358;2023-11-18T05:51:09;0.70;;;0.70;;
6394;SDS011;3230;42.588;23.358;2023-11-18T05:53:41;0.90;;;0.90;;
6394;SDS011;3230;42.588;23.358;2023-11-18T05:56:14;0.80;;;0.80;;
6394;SDS011;3230;42.588;23.358;2023-11-18T05:58:41;0.90;;;0.90;;
6394;SDS011;3230;42.588;23.358;2023-11-18T06:01:08;0.80;;;0.80;;
6394;SDS011;3230;42.588;23.358;2023-11-18T06:03:34;0.90;;;0.90;;
6394;SDS011;3230;42.588;23.358;2023-11-18T06:06:04;1.40;;;1.00;;
6394;SDS011;3230;42.588;23.358;2023-11-18T06:08:36;0.85;;;0.85;;
6394;SDS011;3230;42.588;23.358;2023-11-18T06:11:09;1.05;;;0.93;;
6394;SDS011;3230;42.588;23.358;2023-11-18T06:13:41;0.65;;;0.65;;
6394;SDS011;3230;42.588;23.358;2023-11-18T06:16:17;0.63;;;0.63;;
6394;SDS011;3230;42.588;23.358;2023-11-18T06:18:47;1.10;;;0.90;;
6394;SDS011;3230;42.588;23.358;2023-11-18T06:21:14;0.70;;;0.70;;
6394;SDS011;3230;42.588;23.358;2023-11-18T06:23:41;0.63;;;0.63;;
6394;SDS011;3230;42.588;23.358;2023-11-18T06:26:07;0.73;;;0.60;;
6394;SDS011;3230;42.588;23.358;2023-11-18T06:28:35;0.50;;;0.50;;
6394;SDS011;3230;42.588;23.358;2023-11-18T06:31:02;0.70;;;0.70;;
6394;SDS011;3230;42.588;23.358;2023-11-18T06:33:28;0.70;;;0.70;;
6394;SDS011;3230;42.588;23.358;2023-11-18T06:35:53;0.53;;;0.53;;
6394;SDS011;3230;42.588;23.358;2023-11-18T06:38:20;0.60;;;0.60;;
6394;SDS011;3230;42.588;23.358;2023-11-18T06:40:46;0.53;;;0.53;;
6394;SDS011;3230;42.588;23.358;2023-11-18T06:43:11;0.60;;;0.60;;
6394;SDS011;3230;42.588;23.358;2023-11-18T06:45:36;0.70;;;0.60;;
6394;SDS011;3230;42.588;23.358;2023-11-18T06:48:05;0.57;;;0.57;;
6394;SDS011;3230;42.588;23.358;2023-11-18T06:50:31;0.70;;;0.60;;
6394;SDS011;3230;42.588;23.358;2023-11-18T06:52:57;1.07;;;0.50;;
6394;SDS011;3230;42.588;23.358;2023-11-18T06:55:23;3.25;;;0.70;;
6394;SDS011;3230;42.588;23.358;2023-11-18T06:57:51;0.50;;;0.50;;
6394;SDS011;3230;42.588;23.358;2023-11-18T07:00:17;0.60;;;0.60;;
6394;SDS011;3230;42.588;23.358;2023-11-18T07:02:42;0.60;;;0.60;;
6394;SDS011;3230;42.588;23.358;2023-11-18T07:05:08;0.60;;;0.50;;
6394;SDS011;3230;42.588;23.358;2023-11-18T07:07:34;0.60;;;0.57;;
6394;SDS011;3230;42.588;23.358;2023-11-18T07:09:59;0.60;;;0.60;;
6394;SDS011;3230;42.588;23.358;2023-11-18T07:12:24;0.50;;;0.50;;
6394;SDS011;3230;42.588;23.358;2023-11-18T07:14:50;0.63;;;0.60;;
6394;SDS011;3230;42.588;23.358;2023-11-18T07:17:15;0.50;;;0.50;;
6394;SDS011;3230;42.588;23.358;2023-11-18T07:19:44;0.70;;;0.70;;
6394;SDS011;3230;42.588;23.358;2023-11-18T07:22:10;0.80;;;0.80;;
6394;SDS011;3230;42.588;23.358;2023-11-18T07:24:35;3.33;;;0.60;;
6394;SDS011;3230;42.588;23.358;2023-11-18T07:27:00;0.40;;;0.40;;
6394;SDS011;3230;42.588;23.358;2023-11-18T07:29:26;0.50;;;0.50;;
6394;SDS011;3230;42.588;23.358;2023-11-18T07:31:52;0.60;;;0.60;;
6394;SDS011;3230;42.588;23.358;2023-11-18T07:34:19;0.82;;;0.60;;
6394;SDS011;3230;42.588;23.358;2023-11-18T07:36:46;0.50;;;0.50;;
6394;SDS011;3230;42.588;23.358;2023-11-18T07:39:13;0.50;;;0.50;;
6394;SDS011;3230;42.588;23.358;2023-11-18T07:41:49;0.60;;;0.60;;
6394;SDS011;3230;42.588;23.358;2023-11-18T07:44:14;0.60;;;0.60;;
6394;SDS011;3230;42.588;23.358;2023-11-18T07:46:41;8.13;;;5.10;;
6394;SDS011;3230;42.588;23.358;2023-11-18T07:49:07;5.03;;;2.95;;
6394;SDS011;3230;42.588;23.358;2023-11-18T07:51:33;7.97;;;4.03;;
6394;SDS011;3230;42.588;23.358;2023-11-18T07:53:58;7.80;;;4.90;;
6394;SDS011;3230;42.588;23.358;2023-11-18T07:56:23;7.53;;;4.30;;
6394;SDS011;3230;42.588;23.358;2023-11-18T07:58:49;2.73;;;2.30;;
6394;SDS011;3230;42.588;23.358;2023-11-18T08:01:17;0.90;;;0.73;;
6394;SDS011;3230;42.588;23.358;2023-11-18T08:03:42;23.50;;;13.15;;
6394;SDS011;3230;42.588;23.358;2023-11-18T08:06:09;0.60;;;0.60;;
6394;SDS011;3230;42.588;23.358;2023-11-18T08:08:37;5.35;;;2.60;;
6394;SDS011;3230;42.588;23.358;2023-11-18T08:11:03;57.78;;;23.02;;
6394;SDS011;3230;42.588;23.358;2023-11-18T08:13:30;63.28;;;22.20;;
6394;SDS011;3230;42.588;23.358;2023-11-18T08:15:55;54.77;;;19.63;;
6394;SDS011;3230;42.588;23.358;2023-11-18T08:18:23;32.15;;;11.32;;
6394;SDS011;3230;42.588;23.358;2023-11-18T08:20:49;17.48;;;8.10;;
6394;SDS011;3230;42.588;23.358;2023-11-18T08:23:14;20.60;;;10.50;;
6394;SDS011;3230;42.588;23.358;2023-11-18T08:25:40;2.90;;;2.27;;
6394;SDS011;3230;42.588;23.358;2023-11-18T08:28:06;0.90;;;0.90;;
6394;SDS011;3230;42.588;23.358;2023-11-18T08:30:39;1.40;;;1.00;;
6394;SDS011;3230;42.588;23.358;2023-11-18T08:33:04;0.70;;;0.70;;
6394;SDS011;3230;42.588;23.358;2023-11-18T08:35:34;0.80;;;0.80;;
6394;SDS011;3230;42.588;23.358;2023-11-18T08:38:02;0.93;;;0.73;;
6394;SDS011;3230;42.588;23.358;2023-11-18T08:40:29;0.70;;;0.70;;
6394;SDS011;3230;42.588;23.358;2023-11-18T08:42:54;0.57;;;0.57;;
6394;SDS011;3230;42.588;23.358;2023-11-18T08:45:24;1.45;;;0.80;;
6394;SDS011;3230;42.588;23.358;2023-11-18T08:47:54;1.10;;;1.00;;
6394;SDS011;3230;42.588;23.358;2023-11-18T08:50:24;0.70;;;0.70;;
6394;SDS011;3230;42.588;23.358;2023-11-18T08:52:51;7.32;;;0.80;;
6394;SDS011;3230;42.588;23.358;2023-11-18T08:55:24;0.70;;;0.70;;
6394;SDS011;3230;42.588;23.358;2023-11-18T08:58:03;0.73;;;0.73;;
6394;SDS011;3230;42.588;23.358;2023-11-18T09:00:40;2.40;;;0.68;;
6394;SDS011;3230;42.588;23.358;2023-11-18T09:03:10;1.50;;;0.93;;
6394;SDS011;3230;42.588;23.358;2023-11-18T09:05:43;1.30;;;1.20;;
6394;SDS011;3230;42.588;23.358;2023-11-18T09:08:21;1.10;;;1.00;;
6394;SDS011;3230;42.588;23.358;2023-11-18T09:10:48;0.70;;;0.60;;
6394;SDS011;3230;42.588;23.358;2023-11-18T09:13:13;0.70;;;0.70;;
6394;SDS011;3230;42.588;23.358;2023-11-18T09:15:39;0.95;;;0.95;;
6394;SDS011;3230;42.588;23.358;2023-11-18T09:18:05;21.00;;;9.83;;
6394;SDS011;3230;42.588;23.358;2023-11-18T09:20:35;16.73;;;10.32;;
6394;SDS011;3230;42.588;23.358;2023-11-18T09:23:02;5.13;;;3.35;;
6394;SDS011;3230;42.588;23.358;2023-11-18T09:25:27;5.40;;;2.63;;
6394;SDS011;3230;42.588;23.358;2023-11-18T09:27:53;4.63;;;3.40;;
6394;SDS011;3230;42.588;23.358;2023-11-18T09:30:18;1.30;;;1.20;;
6394;SDS011;3230;42.588;23.358;2023-11-18T09:32:44;2.07;;;1.27;;
6394;SDS011;3230;42.588;23.358;2023-11-18T09:35:12;1.15;;;0.50;;
6394;SDS011;3230;42.588;23.358;2023-11-18T09:37:39;1.90;;;1.40;;
6394;SDS011;3230;42.588;23.358;2023-11-18T09:40:16;1.00;;;1.00;;
6394;SDS011;3230;42.588;23.358;2023-11-18T09:42:49;1.30;;;1.20;;
6394;SDS011;3230;42.588;23.358;2023-11-18T09:45:16;1.13;;;1.02;;
6394;SDS011;3230;42.588;23.358;2023-11-18T09:47:45;0.90;;;0.90;;
6394;SDS011;3230;42.588;23.358;2023-11-18T09:50:18;1.90;;;1.48;;
6394;SDS011;3230;42.588;23.358;2023-11-18T09:52:50;0.77;;;0.77;;
6394;SDS011;3230;42.588;23.358;2023-11-18T09:55:35;1.30;;;1.20;;
6394;SDS011;3230;42.588;23.358;2023-11-18T09:58:20;0.85;;;0.85;;
6394;SDS011;3230;42.588;23.358;2023-11-18T10:00:49;0.65;;;0.65;;
6394;SDS011;3230;42.588;23.358;2023-11-18T10:03:21;1.92;;;1.20;;
6394;SDS011;3230;42.588;23.358;2023-11-18T10:05:47;1.13;;;0.90;;
6394;SDS011;3230;42.588;23.358;2023-11-18T10:08:14;0.70;;;0.70;;
6394;SDS011;3230;42.588;23.358;2023-11-18T10:10:41;1.92;;;1.02;;
6394;SDS011;3230;42.588;23.358;2023-11-18T10:13:10;0.80;;;0.80;;
6394;SDS011;3230;42.588;23.358;2023-11-18T10:15:46;0.70;;;0.70;;
6394;SDS011;3230;42.588;23.358;2023-11-18T10:18:17;3.20;;;0.60;;
6394;SDS011;3230;42.588;23.358;2023-11-18T10:20:53;0.70;;;0.70;;
6394;SDS011;3230;42.588;23.358;2023-11-18T10:23:19;0.83;;;0.83;;
6394;SDS011;3230;42.588;23.358;2023-11-18T10:25:53;0.60;;;0.60;;
6394;SDS011;3230;42.588;23.358;2023-11-18T10:30:48;0.50;;;0.50;;
6394;SDS011;3230;42.588;23.358;2023-11-18T10:33:17;0.70;;;0.70;;
6394;SDS011;3230;42.588;23.358;2023-11-18T10:35:49;0.70;;;0.70;;
6394;SDS011;3230;42.588;23.358;2023-11-18T10:38:20;0.70;;;0.70;;
6394;SDS011;3230;42.588;23.358;2023-11-18T10:40:50;0.70;;;0.70;;
6394;SDS011;3230;42.588;23.358;2023-11-18T10:43:17;0.75;;;0.75;;
6394;SDS011;3230;42.588;23.358;2023-11-18T10:45:43;0.70;;;0.67;;
6394;SDS011;3230;42.588;23.358;2023-11-18T10:48:11;1.85;;;0.60;;
6394;SDS011;3230;42.588;23.358;2023-11-18T10:50:41;0.80;;;0.80;;
6394;SDS011;3230;42.588;23.358;2023-11-18T10:53:07;0.70;;;0.70;;
6394;SDS011;3230;42.588;23.358;2023-11-18T10:55:36;1.23;;;0.90;;
6394;SDS011;3230;42.588;23.358;2023-11-18T10:58:02;1.05;;;0.95;;
6394;SDS011;3230;42.588;23.358;2023-11-18T11:00:29;1.00;;;0.80;;
6394;SDS011;3230;42.588;23.358;2023-11-18T11:03:12;0.80;;;0.80;;
6394;SDS011;3230;42.588;23.358;2023-11-18T11:05:39;0.75;;;0.70;;
6394;SDS011;3230;42.588;23.358;2023-11-18T11:08:07;1.20;;;0.77;;
6394;SDS011;3230;42.588;23.358;2023-11-18T11:10:34;0.98;;;0.98;;
6394;SDS011;3230;42.588;23.358;2023-11-18T11:13:01;0.80;;;0.75;;
6394;SDS011;3230;42.588;23.358;2023-11-18T11:15:30;0.80;;;0.70;;
6394;SDS011;3230;42.588;23.358;2023-11-18T11:18:04;3.83;;;0.70;;
6394;SDS011;3230;42.588;23.358;2023-11-18T11:20:37;0.70;;;0.60;;
6394;SDS011;3230;42.588;23.358;2023-11-18T11:28:46;0.90;;;0.75;;
6394;SDS011;3230;42.588;23.358;2023-11-18T11:31:21;1.05;;;0.95;;
6394;SDS011;3230;42.588;23.358;2023-11-18T11:33:57;0.70;;;0.70;;
6394;SDS011;3230;42.588;23.358;2023-11-18T11:36:37;1.77;;;0.90;;
6394;SDS011;3230;42.588;23.358;2023-11-18T11:39:06;1.08;;;0.93;;
6394;SDS011;3230;42.588;23.358;2023-11-18T11:41:46;1.50;;;0.80;;
6394;SDS011;3230;42.588;23.358;2023-11-18T11:44:16;0.80;;;0.80;;
6394;SDS011;3230;42.588;23.358;2023-11-18T11:46:44;1.23;;;0.90;;
6394;SDS011;3230;42.588;23.358;2023-11-18T11:49:10;0.70;;;0.70;;
6394;SDS011;3230;42.588;23.358;2023-11-18T11:52:02;1.23;;;0.82;;
6394;SDS011;3230;42.588;23.358;2023-11-18T11:54:38;0.90;;;0.90;;
6394;SDS011;3230;42.588;23.358;2023-11-18T11:57:08;4.00;;;2.00;;
6394;SDS011;3230;42.588;23.358;2023-11-18T12:02:12;3.45;;;1.63;;
6394;SDS011;3230;42.588;23.358;2023-11-18T12:04:44;1.88;;;1.77;;
6394;SDS011;3230;42.588;23.358;2023-11-18T12:07:09;1.95;;;1.67;;
6394;SDS011;3230;42.588;23.358;2023-11-18T12:09:35;1.37;;;1.10;;
6394;SDS011;3230;42.588;23.358;2023-11-18T12:12:04;3.35;;;1.88;;
6394;SDS011;3230;42.588;23.358;2023-11-18T12:14:53;1.95;;;1.40;;
6394;SDS011;3230;42.588;23.358;2023-11-18T12:17:23;1.15;;;0.95;;
6394;SDS011;3230;42.588;23.358;2023-11-18T12:19:50;0.82;;;0.77;;
6394;SDS011;3230;42.588;23.358;2023-11-18T12:22:23;0.70;;;0.70;;
6394;SDS011;3230;42.588;23.358;2023-11-18T12:30:05;0.80;;;0.70;;
6394;SDS011;3230;42.588;23.358;2023-11-18T12:41:10;2.15;;;1.70;;
6394;SDS011;3230;42.588;23.358;2023-11-18T12:49:03;1.40;;;1.30;;
6394;SDS011;3230;42.588;23.358;2023-11-18T12:51:30;2.67;;;1.85;;
6394;SDS011;3230;42.588;23.358;2023-11-18T12:53:59;1.00;;;1.00;;
6394;SDS011;3230;42.588;23.358;2023-11-18T12:56:27;1.20;;;1.10;;
6394;SDS011;3230;42.588;23.358;2023-11-18T12:58:55;1.48;;;1.38;;
6394;SDS011;3230;42.588;23.358;2023-11-18T13:01:21;4.63;;;2.93;;
6394;SDS011;3230;42.588;23.358;2023-11-18T13:03:47;0.70;;;0.70;;
6394;SDS011;3230;42.588;23.358;2023-11-18T13:06:19;1.03;;;0.93;;
6394;SDS011;3230;42.588;23.358;2023-11-18T13:08:47;3.42;;;1.75;;
6394;SDS011;3230;42.588;23.358;2023-11-18T13:11:12;0.80;;;0.80;;
6394;SDS011;3230;42.588;23.358;2023-11-18T13:13:40;1.90;;;1.70;;
6394;SDS011;3230;42.588;23.358;2023-11-18T13:16:09;2.55;;;1.83;;
6394;SDS011;3230;42.588;23.358;2023-11-18T13:18:41;1.63;;;1.30;;
6394;SDS011;3230;42.588;23.358;2023-11-18T13:21:12;4.57;;;2.13;;
6394;SDS011;3230;42.588;23.358;2023-11-18T13:23:38;2.58;;;1.90;;
6394;SDS011;3230;42.588;23.358;2023-11-18T13:26:04;1.53;;;1.10;;
6394;SDS011;3230;42.588;23.358;2023-11-18T13:28:31;1.20;;;1.10;;
6394;SDS011;3230;42.588;23.358;2023-11-18T13:30:57;2.03;;;1.45;;
6394;SDS011;3230;42.588;23.358;2023-11-18T13:33:23;1.00;;;1.00;;
6394;SDS011;3230;42.588;23.358;2023-11-18T13:35:48;3.53;;;2.33;;
6394;SDS011;3230;42.588;23.358;2023-11-18T13:38:14;1.50;;;1.40;;
6394;SDS011;3230;42.588;23.358;2023-11-18T13:40:43;1.10;;;1.10;;
6394;SDS011;3230;42.588;23.358;2023-11-18T13:43:13;2.22;;;1.50;;
6394;SDS011;3230;42.588;23.358;2023-11-18T13:45:38;1.15;;;1.05;;
6394;SDS011;3230;42.588;23.358;2023-11-18T13:48:07;1.40;;;1.30;;
6394;SDS011;3230;42.588;23.358;2023-11-18T13:50:34;1.42;;;1.30;;
6394;SDS011;3230;42.588;23.358;2023-11-18T13:53:02;1.48;;;1.40;;
6394;SDS011;3230;42.588;23.358;2023-11-18T13:55:28;1.45;;;1.35;;
6394;SDS011;3230;42.588;23.358;2023-11-18T13:57:57;4.95;;;2.67;;
6394;SDS011;3230;42.588;23.358;2023-11-18T14:00:26;1.30;;;1.20;;
6394;SDS011;3230;42.588;23.358;2023-11-18T14:02:53;2.38;;;1.48;;
6394;SDS011;3230;42.588;23.358;2023-11-18T14:05:21;1.52;;;1.33;;
6394;SDS011;3230;42.588;23.358;2023-11-18T14:07:49;1.33;;;1.23;;
6394;SDS011;3230;42.588;23.358;2023-11-18T14:10:21;1.60;;;1.50;;
6394;SDS011;3230;42.588;23.358;2023-11-18T14:13:03;3.42;;;1.60;;
6394;SDS011;3230;42.588;23.358;2023-11-18T14:15:37;1.10;;;1.00;;
6394;SDS011;3230;42.588;23.358;2023-11-18T14:18:03;1.13;;;1.03;;
6394;SDS011;3230;42.588;23.358;2023-11-18T14:20:29;1.25;;;1.15;;
6394;SDS011;3230;42.588;23.358;2023-11-18T14:22:56;1.70;;;1.23;;
6394;SDS011;3230;42.588;23.358;2023-11-18T14:25:24;1.98;;;1.27;;
6394;SDS011;3230;42.588;23.358;2023-11-18T14:27:50;1.50;;;1.40;;
6394;SDS011;3230;42.588;23.358;2023-11-18T14:30:22;1.70;;;1.60;;
6394;SDS011;3230;42.588;23.358;2023-11-18T14:32:51;1.88;;;1.23;;
6394;SDS011;3230;42.588;23.358;2023-11-18T14:35:16;1.35;;;1.25;;
6394;SDS011;3230;42.588;23.358;2023-11-18T14:37:42;1.53;;;1.43;;
6394;SDS011;3230;42.588;23.358;2023-11-18T14:40:17;2.40;;;1.80;;
6394;SDS011;3230;42.588;23.358;2023-11-18T14:42:43;1.90;;;1.70;;
6394;SDS011;3230;42.588;23.358;2023-11-18T14:45:12;1.55;;;1.40;;
6394;SDS011;3230;42.588;23.358;2023-11-18T14:47:39;2.08;;;1.90;;
6394;SDS011;3230;42.588;23.358;2023-11-18T14:50:05;3.65;;;2.17;;
6394;SDS011;3230;42.588;23.358;2023-11-18T14:52:40;1.50;;;1.15;;
6394;SDS011;3230;42.588;23.358;2023-11-18T14:55:10;2.67;;;2.03;;
6394;SDS011;3230;42.588;23.358;2023-11-18T14:57:40;2.03;;;1.83;;
6394;SDS011;3230;42.588;23.358;2023-11-18T15:00:06;2.33;;;1.90;;
6394;SDS011;3230;42.588;23.358;2023-11-18T15:02:44;2.72;;;1.50;;
6394;SDS011;3230;42.588;23.358;2023-11-18T15:05:16;2.92;;;1.83;;
6394;SDS011;3230;42.588;23.358;2023-11-18T15:07:43;2.45;;;1.80;;
6394;SDS011;3230;42.588;23.358;2023-11-18T15:10:20;5.18;;;2.03;;
6394;SDS011;3230;42.588;23.358;2023-11-18T15:12:48;2.10;;;1.88;;
6394;SDS011;3230;42.588;23.358;2023-11-18T15:15:17;2.90;;;2.42;;
6394;SDS011;3230;42.588;23.358;2023-11-18T15:17:44;7.43;;;3.33;;
6394;SDS011;3230;42.588;23.358;2023-11-18T15:20:12;2.45;;;1.85;;
6394;SDS011;3230;42.588;23.358;2023-11-18T15:22:38;2.80;;;1.80;;
6394;SDS011;3230;42.588;23.358;2023-11-18T15:25:04;2.85;;;2.05;;
6394;SDS011;3230;42.588;23.358;2023-11-18T15:27:34;3.15;;;1.67;;
6394;SDS011;3230;42.588;23.358;2023-11-18T15:30:00;5.07;;;2.17;;
6394;SDS011;3230;42.588;23.358;2023-11-18T15:32:27;3.90;;;2.40;;
6394;SDS011;3230;42.588;23.358;2023-11-18T15:34:52;5.73;;;2.20;;
6394;SDS011;3230;42.588;23.358;2023-11-18T15:37:18;6.27;;;2.80;;
6394;SDS011;3230;42.588;23.358;2023-11-18T15:39:43;3.67;;;2.40;;